Time;durP1;ratioP1;P1;durP2;ratioP2;P2;SDS_P1;SDS_P2;PMS_P1;PMS_P2;Temp;Humidity;BMP_temperature;BMP_pressure;BME280_temperature;BME280_humidity;BME280_pressure;Samples;Min_cycle;Max_cycle;Signal;HPM_P1;HPM_P2
2023/07/16 00:01:01;;;;;;;;;7.50;7.00;;;;;21.03;38.34;100834.25;5060511;28;45475;-64
2023/07/16 00:03:26;;;;;;;;;9.25;4.75;;;;;21.01;38.66;100830.78;5061778;28;45390;-64
2023/07/16 00:05:51;;;;;;;;;3.00;3.00;;;;;20.96;39.22;100830.19;5061695;28;45374;-64
2023/07/16 00:08:17;;;;;;;;;6.25;6.25;;;;;20.93;39.42;100841.91;5067315;28;45489;-63
2023/07/16 00:10:42;;;;;;;;;5.75;5.75;;;;;20.87;39.84;100825.38;5062945;28;45256;-63
2023/07/16 00:13:07;;;;;;;;;5.00;5.00;;;;;20.85;39.92;100838.78;5074208;28;45387;-64
2023/07/16 00:15:33;;;;;;;;;3.25;2.50;;;;;20.83;39.29;100834.47;5081769;28;45322;-63
2023/07/16 00:17:58;;;;;;;;;5.50;4.75;;;;;20.73;40.16;100829.66;5081862;28;45339;-62
2023/07/16 00:20:23;;;;;;;;;6.25;5.50;;;;;20.72;40.12;100835.09;5081876;28;45133;-61
2023/07/16 00:22:49;;;;;;;;;5.75;5.75;;;;;20.68;40.15;100834.38;5080306;28;46689;-61
2023/07/16 00:25:15;;;;;;;;;5.25;4.50;;;;;20.68;39.96;100841.50;5080081;28;45414;-63
2023/07/16 00:27:41;;;;;;;;;7.25;6.00;;;;;20.65;39.74;100837.19;5080483;28;45376;-64
2023/07/16 00:30:07;;;;;;;;;6.75;5.00;;;;;20.65;39.70;100842.53;5080301;28;45553;-64
2023/07/16 00:32:33;;;;;;;;;8.00;5.75;;;;;20.63;39.95;100834.59;5080207;28;48487;-64
2023/07/16 00:34:58;;;;;;;;;5.75;4.75;;;;;20.61;39.52;100836.50;5060643;28;45348;-64
2023/07/16 00:37:23;;;;;;;;;10.50;7.00;;;;;20.62;40.07;100837.38;5061505;28;45245;-63
2023/07/16 00:39:49;;;;;;;;;6.50;6.25;;;;;20.61;39.69;100843.66;5061135;28;45561;-64
2023/07/16 00:42:14;;;;;;;;;4.25;4.25;;;;;20.61;40.05;100832.97;5061351;28;45324;-64
2023/07/16 00:44:40;;;;;;;;;5.25;5.25;;;;;20.58;40.16;100846.50;5075414;28;45232;-64
2023/07/16 00:47:05;;;;;;;;;5.00;4.00;;;;;20.58;40.18;100839.34;5061275;28;45215;-64
2023/07/16 00:49:31;;;;;;;;;4.25;4.25;;;;;20.50;40.31;100827.34;5059553;28;45507;-64
2023/07/16 00:51:58;;;;;;;;;6.50;5.50;;;;;20.53;39.72;100837.88;5059840;28;48327;-64
2023/07/16 00:54:24;;;;;;;;;8.50;6.25;;;;;20.51;40.13;100845.09;5059676;28;45593;-64
2023/07/16 00:56:49;;;;;;;;;5.00;5.00;;;;;20.51;39.80;100840.63;5058869;28;45275;-64
2023/07/16 00:59:15;;;;;;;;;7.50;5.75;;;;;20.50;40.30;100854.91;5060819;28;45672;-64
2023/07/16 01:01:41;;;;;;;;;8.00;5.75;;;;;20.46;40.26;100848.00;5061056;28;46298;-64
2023/07/16 01:04:06;;;;;;;;;7.00;6.50;;;;;20.39;40.03;100847.50;5060468;28;45430;-64
2023/07/16 01:06:39;;;;;;;;;7.25;4.25;;;;;20.44;39.90;100855.25;5061127;28;45533;-62
2023/07/16 01:09:24;;;;;;;;;8.00;7.00;;;;;20.42;40.57;100866.00;5066665;28;45387;-62
2023/07/16 01:11:49;;;;;;;;;7.25;5.00;;;;;20.42;40.69;100863.31;5060539;28;46072;-62
2023/07/16 01:14:18;;;;;;;;;9.75;7.25;;;;;20.38;40.60;100859.09;5081063;28;45321;-62
2023/07/16 01:16:43;;;;;;;;;12.25;7.00;;;;;20.36;40.52;100857.47;5080964;28;45219;-63
2023/07/16 01:19:09;;;;;;;;;7.50;7.50;;;;;20.34;40.43;100867.34;5079398;28;45308;-64
2023/07/16 01:22:18;;;;;;;;;6.75;6.25;;;;;20.29;40.87;100875.63;5079208;28;46829;-64
2023/07/16 01:25:11;;;;;;;;;8.75;5.00;;;;;20.27;40.36;100874.81;5079362;28;45454;-64
2023/07/16 01:28:07;;;;;;;;;7.75;5.00;;;;;20.24;40.75;100875.84;5080918;27;45457;-64
2023/07/16 01:30:37;;;;;;;;;11.00;6.25;;;;;20.19;40.88;100880.56;5081019;28;45473;-64
2023/07/16 01:33:04;;;;;;;;;7.00;7.00;;;;;20.18;40.62;100880.66;5080234;28;45418;-64
2023/07/16 01:35:30;;;;;;;;;6.00;5.00;;;;;20.12;41.03;100877.38;5080685;28;45409;-64
2023/07/16 01:37:55;;;;;;;;;8.50;6.75;;;;;20.06;41.35;100876.81;5062129;28;45265;-64
2023/07/16 01:40:20;;;;;;;;;4.75;3.50;;;;;19.99;41.29;100870.94;5060448;28;45214;-64
2023/07/16 01:42:46;;;;;;;;;7.50;7.25;;;;;20.03;41.08;100888.50;5060201;28;45387;-64
2023/07/16 01:45:11;;;;;;;;;9.00;7.25;;;;;20.01;41.51;100886.84;5060454;28;45279;-64
2023/07/16 01:48:29;;;;;;;;;9.00;7.50;;;;;19.97;41.30;100889.69;5060056;28;45630;-64
2023/07/16 01:50:55;;;;;;;;;7.75;6.50;;;;;19.90;41.09;100874.94;5060118;28;45509;-64
2023/07/16 01:53:20;;;;;;;;;8.25;6.00;;;;;19.88;41.41;100883.97;5060009;28;45324;-64
2023/07/16 01:55:46;;;;;;;;;10.00;7.00;;;;;19.81;41.36;100881.56;5059895;28;45322;-64
2023/07/16 01:58:11;;;;;;;;;10.75;7.50;;;;;19.76;41.37;100880.94;5060208;28;45476;-63
2023/07/16 02:00:36;;;;;;;;;9.25;6.00;;;;;19.78;41.52;100889.72;5058695;28;45439;-64
2023/07/16 02:03:02;;;;;;;;;5.75;5.75;;;;;19.75;41.34;100892.53;5059972;28;45232;-64
2023/07/16 02:05:28;;;;;;;;;6.75;5.00;;;;;19.72;41.52;100884.72;5060127;28;45170;-64
2023/07/16 02:07:53;;;;;;;;;6.50;5.50;;;;;19.72;41.52;100887.38;5067391;28;45239;-64
2023/07/16 02:10:18;;;;;;;;;9.00;6.75;;;;;19.68;41.83;100893.78;5062491;27;45240;-63
2023/07/16 02:12:44;;;;;;;;;6.75;5.25;;;;;19.64;42.00;100886.88;5069006;28;46071;-64
2023/07/16 02:15:09;;;;;;;;;8.75;7.75;;;;;19.62;41.94;100891.41;5079898;28;45452;-64
2023/07/16 02:17:35;;;;;;;;;6.75;5.75;;;;;19.57;41.71;100893.44;5080096;28;45484;-64
2023/07/16 02:20:01;;;;;;;;;8.25;7.00;;;;;19.52;42.08;100895.47;5078731;28;45717;-64
2023/07/16 02:22:27;;;;;;;;;6.25;4.75;;;;;19.49;41.91;100896.50;5079964;28;46116;-64
2023/07/16 02:24:52;;;;;;;;;7.00;7.00;;;;;19.44;42.27;100896.72;5078455;28;45537;-64
2023/07/16 02:27:17;;;;;;;;;4.50;3.25;;;;;19.43;42.11;100900.34;5080313;28;45356;-64
2023/07/16 02:29:43;;;;;;;;;7.75;6.00;;;;;19.39;41.91;100900.56;5078634;28;45541;-64
2023/07/16 02:32:08;;;;;;;;;5.00;3.25;;;;;19.34;41.98;100911.44;5078777;28;47205;-64
2023/07/16 02:34:33;;;;;;;;;11.00;6.25;;;;;19.30;42.24;100905.38;5079627;28;45392;-64
2023/07/16 02:36:59;;;;;;;;;8.50;6.00;;;;;19.28;42.16;100911.72;5078891;27;45802;-64
2023/07/16 02:39:24;;;;;;;;;5.50;4.50;;;;;19.23;42.60;100911.09;5078513;28;45433;-64
2023/07/16 02:41:49;;;;;;;;;6.75;6.25;;;;;19.21;42.43;100912.97;5079856;28;45344;-64
2023/07/16 02:44:15;;;;;;;;;7.00;5.25;;;;;19.16;42.72;100903.38;5079758;28;45438;-64
2023/07/16 02:46:41;;;;;;;;;6.00;6.00;;;;;19.10;42.74;100914.31;5080134;28;45322;-63
2023/07/16 02:49:07;;;;;;;;;8.75;6.25;;;;;19.06;42.69;100899.44;5079382;28;45808;-64
2023/07/16 02:51:32;;;;;;;;;9.25;7.00;;;;;19.06;43.17;100911.91;5079736;28;46130;-63
2023/07/16 02:53:57;;;;;;;;;8.00;6.00;;;;;19.01;43.08;100917.44;5079626;28;45233;-63
2023/07/16 02:56:23;;;;;;;;;4.25;4.25;;;;;18.96;43.57;100909.66;5079968;28;45223;-64
2023/07/16 02:58:48;;;;;;;;;4.00;4.00;;;;;18.91;43.22;100898.34;5078279;28;45320;-64
2023/07/16 03:01:13;;;;;;;;;6.25;6.25;;;;;18.90;43.56;100904.59;5079203;28;59803;-64
2023/07/16 03:03:39;;;;;;;;;4.00;3.75;;;;;18.93;42.99;100917.78;5079320;28;45263;-64
2023/07/16 03:06:04;;;;;;;;;6.00;4.25;;;;;18.91;43.44;100919.66;5079830;28;45418;-63
2023/07/16 03:08:31;;;;;;;;;7.00;4.75;;;;;18.86;43.50;100912.81;5077841;28;47689;-64
2023/07/16 03:10:57;;;;;;;;;5.00;3.00;;;;;18.83;43.55;100919.13;5059342;28;45228;-64
2023/07/16 03:13:22;;;;;;;;;6.00;5.00;;;;;18.80;43.64;100922.78;5073352;28;45357;-63
2023/07/16 03:15:48;;;;;;;;;8.00;6.25;;;;;18.79;44.15;100930.81;5079634;28;45382;-63
2023/07/16 03:18:13;;;;;;;;;5.00;5.00;;;;;18.73;44.14;100926.66;5079134;28;45320;-64
2023/07/16 03:20:38;;;;;;;;;6.50;5.00;;;;;18.72;44.08;100927.59;5071576;28;46694;-64
2023/07/16 03:23:04;;;;;;;;;6.00;5.25;;;;;18.67;44.61;100925.13;5072346;28;45355;-63
2023/07/16 03:25:29;;;;;;;;;7.50;6.50;;;;;18.67;44.48;100934.94;5065573;28;45440;-63
2023/07/16 03:27:55;;;;;;;;;6.00;4.50;;;;;18.61;44.54;100928.06;5062427;28;45307;-64
2023/07/16 03:30:20;;;;;;;;;3.50;3.50;;;;;18.61;44.01;100925.41;5062508;28;46060;-63
2023/07/16 03:32:45;;;;;;;;;7.25;5.00;;;;;18.62;44.17;100940.44;5060800;28;45352;-64
2023/07/16 03:35:11;;;;;;;;;7.25;7.00;;;;;18.58;44.38;100932.66;5062610;28;45311;-61
2023/07/16 03:37:36;;;;;;;;;7.50;5.25;;;;;18.56;44.46;100921.25;5062200;28;45303;-63
2023/07/16 03:40:15;;;;;;;;;5.75;5.25;;;;;18.55;44.66;100938.13;5064363;28;45654;-64
2023/07/16 03:42:41;;;;;;;;;9.00;6.50;;;;;18.54;44.50;100941.72;5073163;28;46249;-64
2023/07/16 03:45:07;;;;;;;;;6.50;4.75;;;;;18.51;44.41;100942.72;5062325;28;45220;-63
2023/07/16 03:47:32;;;;;;;;;4.75;4.25;;;;;18.48;44.94;100941.06;5060519;28;46146;-64
2023/07/16 03:49:57;;;;;;;;;5.75;5.25;;;;;18.45;44.97;100946.53;5060774;28;45976;-63
2023/07/16 03:52:24;;;;;;;;;1.50;1.00;;;;;18.42;45.05;100936.00;5072610;28;46068;-64
2023/07/16 03:54:49;;;;;;;;;3.75;2.00;;;;;18.40;44.99;100959.19;5061998;28;45319;-64
2023/07/16 03:57:15;;;;;;;;;10.50;6.75;;;;;18.40;44.69;100947.66;5060823;28;45509;-63
2023/07/16 03:59:40;;;;;;;;;5.50;4.25;;;;;18.37;44.71;100951.31;5060605;28;46939;-64
2023/07/16 04:02:05;;;;;;;;;8.25;4.00;;;;;18.39;45.14;100962.75;5061464;28;54185;-64
2023/07/16 04:04:31;;;;;;;;;6.00;6.00;;;;;18.36;45.21;100946.91;5061891;28;45368;-64
2023/07/16 04:06:56;;;;;;;;;10.00;7.75;;;;;18.34;45.32;100949.66;5060387;28;45382;-63
2023/07/16 04:09:22;;;;;;;;;8.50;7.25;;;;;18.33;45.63;100947.06;5068118;28;45357;-64
2023/07/16 04:11:47;;;;;;;;;6.00;4.25;;;;;18.30;45.87;100955.16;5062834;28;45230;-64
2023/07/16 04:14:13;;;;;;;;;4.25;4.25;;;;;18.32;45.52;100955.97;5082246;28;45385;-62
2023/07/16 04:16:38;;;;;;;;;5.25;5.25;;;;;18.29;45.38;100951.66;5080516;28;45243;-62
2023/07/16 04:19:04;;;;;;;;;50.25;40.25;;;;;18.31;45.72;100959.56;5080333;28;48012;-65
2023/07/16 04:21:30;;;;;;;;;6.00;5.00;;;;;18.29;45.99;100954.31;5080365;28;46124;-62
2023/07/16 04:23:55;;;;;;;;;6.50;5.25;;;;;18.26;45.77;100948.25;5080969;27;45336;-62
2023/07/16 04:26:21;;;;;;;;;11.50;7.75;;;;;18.29;45.67;100958.78;5081752;28;45238;-61
2023/07/16 04:28:46;;;;;;;;;10.50;7.00;;;;;18.27;45.97;100948.19;5081769;28;45323;-62
2023/07/16 04:31:11;;;;;;;;;5.75;5.50;;;;;18.26;46.33;100964.22;5065299;28;45182;-62
2023/07/16 04:33:36;;;;;;;;;5.75;4.75;;;;;18.27;45.90;100964.13;5059559;28;45518;-62
2023/07/16 04:36:02;;;;;;;;;6.00;6.00;;;;;18.26;46.06;100965.06;5061153;28;48991;-62
2023/07/16 04:38:27;;;;;;;;;5.25;3.75;;;;;18.30;46.13;100976.44;5061352;28;47809;-64
2023/07/16 04:40:52;;;;;;;;;6.75;6.75;;;;;18.28;46.15;100975.66;5061158;28;45315;-64
2023/07/16 04:43:18;;;;;;;;;7.50;6.50;;;;;18.26;46.37;100969.53;5061603;28;45271;-64
2023/07/16 04:45:46;;;;;;;;;6.50;5.75;;;;;18.30;46.39;100976.44;5059807;28;45405;-64
2023/07/16 04:48:12;;;;;;;;;6.25;6.25;;;;;18.24;47.26;100969.59;5061037;28;45902;-64
2023/07/16 04:50:38;;;;;;;;;9.75;6.50;;;;;18.28;46.85;100980.97;5061043;28;45227;-64
2023/07/16 04:53:03;;;;;;;;;5.00;3.00;;;;;18.23;46.98;100981.16;5060247;28;45209;-64
2023/07/16 04:55:29;;;;;;;;;7.25;5.75;;;;;18.26;47.23;100986.34;5060762;28;45421;-64
2023/07/16 04:57:56;;;;;;;;;8.25;6.75;;;;;18.23;47.14;100983.81;5061049;28;45892;-64
2023/07/16 05:00:22;;;;;;;;;6.00;4.75;;;;;18.21;47.87;100992.81;5060966;28;45340;-64
2023/07/16 05:02:47;;;;;;;;;8.00;4.75;;;;;18.16;47.10;100977.91;5060899;28;45245;-64
2023/07/16 05:05:13;;;;;;;;;6.75;5.75;;;;;18.25;47.20;100997.94;5060827;28;45498;-64
2023/07/16 05:07:38;;;;;;;;;14.50;9.50;;;;;18.23;47.32;100990.97;5059469;28;46208;-62
2023/07/16 05:10:04;;;;;;;;;8.00;3.75;;;;;18.24;47.45;100993.53;5066820;28;45286;-62
2023/07/16 05:12:29;;;;;;;;;7.75;7.00;;;;;18.19;47.96;100979.56;5068183;28;45576;-62
2023/07/16 05:14:55;;;;;;;;;9.50;7.50;;;;;18.19;47.50;100990.22;5081112;28;45416;-61
2023/07/16 05:17:20;;;;;;;;;8.50;7.50;;;;;18.24;47.53;101003.28;5080670;28;50488;-64
2023/07/16 05:19:45;;;;;;;;;11.50;8.50;;;;;18.23;47.30;101006.91;5081013;28;45400;-64
2023/07/16 05:22:11;;;;;;;;;9.50;8.00;;;;;18.25;47.60;101015.66;5080950;27;45304;-64
2023/07/16 05:24:36;;;;;;;;;9.50;8.25;;;;;18.24;47.29;101000.63;5079668;28;45407;-64
2023/07/16 05:27:01;;;;;;;;;7.00;6.25;;;;;18.23;47.81;101006.91;5080686;28;45476;-64
2023/07/16 05:29:27;;;;;;;;;5.25;5.25;;;;;18.25;47.89;101005.91;5080963;28;45429;-64
2023/07/16 05:31:52;;;;;;;;;8.75;8.75;;;;;18.19;47.91;101001.69;5080676;28;45247;-64
2023/07/16 05:34:17;;;;;;;;;6.25;5.00;;;;;18.27;47.82;101009.34;5079401;28;45907;-64
2023/07/16 05:36:46;;;;;;;;;4.00;4.00;;;;;18.27;48.55;101024.47;5080651;28;45295;-64
2023/07/16 05:39:12;;;;;;;;;7.50;6.25;;;;;18.27;48.48;101013.81;5080522;28;45239;-64
2023/07/16 05:41:39;;;;;;;;;11.00;8.00;;;;;18.27;48.50;101045.75;5080584;28;45393;-64
2023/07/16 05:44:05;;;;;;;;;8.75;7.00;;;;;18.26;48.96;101022.72;5079024;28;45792;-64
2023/07/16 05:46:31;;;;;;;;;10.25;8.00;;;;;18.27;48.68;101029.78;5080412;28;46535;-64
2023/07/16 05:48:56;;;;;;;;;10.00;9.25;;;;;18.25;48.98;101027.19;5080409;28;45276;-64
2023/07/16 05:51:21;;;;;;;;;9.00;8.00;;;;;18.26;48.59;101022.72;5080640;28;45229;-64
2023/07/16 05:53:47;;;;;;;;;2.25;1.75;;;;;18.26;48.87;101028.91;5080627;28;45326;-64
2023/07/16 05:56:12;;;;;;;;;14.50;9.75;;;;;18.29;48.64;101035.91;5080279;28;45444;-64
2023/07/16 05:58:38;;;;;;;;;7.50;7.50;;;;;18.29;49.05;101030.59;5080385;28;45219;-64
2023/07/16 06:01:04;;;;;;;;;14.50;7.00;;;;;18.30;48.54;101035.84;5080397;28;45284;-64
2023/07/16 06:03:29;;;;;;;;;9.25;7.50;;;;;18.31;48.38;101018.06;5066433;28;45189;-64
2023/07/16 06:05:54;;;;;;;;;8.75;8.00;;;;;18.31;49.18;101034.91;5059809;28;46302;-64
2023/07/16 06:08:20;;;;;;;;;12.00;8.75;;;;;18.35;48.65;101027.66;5065827;28;45263;-64
2023/07/16 06:10:45;;;;;;;;;12.50;9.25;;;;;18.34;49.04;101040.09;5061401;27;45225;-64
2023/07/16 06:13:10;;;;;;;;;13.00;10.25;;;;;18.34;49.20;101028.59;5071517;28;45287;-64
2023/07/16 06:15:36;;;;;;;;;7.75;7.75;;;;;18.32;48.96;101027.78;5078691;28;46303;-63
2023/07/16 06:18:02;;;;;;;;;11.50;9.25;;;;;18.35;49.50;101035.63;5095263;27;45382;-64
2023/07/16 06:20:28;;;;;;;;;12.75;9.00;;;;;18.39;49.07;101044.34;5080110;28;45361;-64
2023/07/16 06:22:53;;;;;;;;;10.75;9.00;;;;;18.41;49.04;101040.69;5080079;28;45476;-64
2023/07/16 06:25:21;;;;;;;;;9.00;8.25;;;;;18.45;48.95;101052.06;5078473;28;45456;-64
2023/07/16 06:27:47;;;;;;;;;11.75;10.00;;;;;18.45;48.99;101054.75;5080131;28;45379;-64
2023/07/16 06:30:12;;;;;;;;;11.50;8.25;;;;;18.48;49.24;101047.50;5080068;28;45244;-64
2023/07/16 06:32:38;;;;;;;;;12.50;8.50;;;;;18.53;49.09;101047.31;5078537;28;45542;-64
2023/07/16 06:35:03;;;;;;;;;11.00;8.75;;;;;18.52;48.93;101045.56;5079769;28;45296;-64
2023/07/16 06:37:29;;;;;;;;;14.75;9.25;;;;;18.58;49.32;101047.97;5079915;28;45311;-64
2023/07/16 06:39:54;;;;;;;;;8.00;8.00;;;;;18.61;49.05;101053.16;5079873;27;45226;-64
2023/07/16 06:42:19;;;;;;;;;9.75;6.75;;;;;18.60;49.63;101050.56;5080071;28;45210;-64
2023/07/16 06:44:44;;;;;;;;;9.00;6.50;;;;;18.58;50.58;101061.28;5078362;28;46241;-64
2023/07/16 06:47:10;;;;;;;;;11.00;7.50;;;;;18.63;50.23;101053.97;5078442;28;45319;-64
2023/07/16 06:49:35;;;;;;;;;9.75;8.50;;;;;18.64;49.66;101063.69;5079855;28;45879;-64
2023/07/16 06:52:02;;;;;;;;;9.00;7.00;;;;;18.70;49.96;101064.34;5078592;28;45185;-64
2023/07/16 06:54:27;;;;;;;;;8.25;8.00;;;;;18.75;49.62;101057.88;5058457;28;47304;-64
2023/07/16 06:56:52;;;;;;;;;12.25;7.50;;;;;18.72;50.01;101051.84;5062475;28;45344;-64
2023/07/16 06:59:18;;;;;;;;;8.00;7.50;;;;;18.76;50.11;101064.94;5061700;28;45381;-64
2023/07/16 07:01:43;;;;;;;;;6.00;4.75;;;;;18.79;50.57;101069.25;5062914;28;45582;-65
2023/07/16 07:04:08;;;;;;;;;11.75;8.75;;;;;18.77;50.38;101074.66;5062364;28;45331;-64
2023/07/16 07:06:34;;;;;;;;;12.50;8.25;;;;;18.82;50.16;101046.03;5062748;28;45284;-64
2023/07/16 07:08:59;;;;;;;;;9.00;9.00;;;;;18.86;49.44;101057.41;5080681;28;45267;-64
2023/07/16 07:11:24;;;;;;;;;11.00;7.00;;;;;18.91;49.61;101050.13;5081470;28;45506;-64
2023/07/16 07:13:52;;;;;;;;;9.75;6.00;;;;;18.93;50.02;101055.38;5080750;28;47608;-65
2023/07/16 07:16:17;;;;;;;;;7.00;5.75;;;;;19.00;49.42;101063.03;5081221;28;45758;-64
2023/07/16 07:18:43;;;;;;;;;9.50;8.75;;;;;18.99;49.67;101069.31;5082602;28;46341;-64
2023/07/16 07:21:08;;;;;;;;;9.00;8.50;;;;;19.04;49.93;101068.22;5082802;28;45376;-64
2023/07/16 07:23:33;;;;;;;;;13.00;9.00;;;;;19.08;49.67;101065.38;5082586;28;45220;-64
2023/07/16 07:25:59;;;;;;;;;9.25;8.25;;;;;19.11;49.92;101067.03;5082722;28;45306;-64
2023/07/16 07:28:25;;;;;;;;;13.00;9.25;;;;;19.15;49.72;101055.28;5082810;28;45239;-64
2023/07/16 07:30:50;;;;;;;;;8.00;7.00;;;;;19.20;49.29;101063.06;5081471;28;45446;-64
2023/07/16 07:33:16;;;;;;;;;8.50;6.25;;;;;19.24;49.68;101070.00;5082184;27;45523;-64
2023/07/16 07:35:41;;;;;;;;;10.75;8.00;;;;;19.27;49.44;101068.06;5082626;28;45192;-64
2023/07/16 07:38:06;;;;;;;;;12.00;8.00;;;;;19.30;49.69;101056.38;5082622;28;45232;-64
2023/07/16 07:40:32;;;;;;;;;9.50;5.75;;;;;19.33;49.38;101072.22;5082662;28;45503;-63
2023/07/16 07:42:57;;;;;;;;;3.75;3.75;;;;;19.32;48.94;101058.06;5082421;28;45414;-64
2023/07/16 07:45:23;;;;;;;;;8.00;7.75;;;;;19.41;49.06;101070.09;5082656;27;45335;-64
2023/07/16 07:47:49;;;;;;;;;5.00;5.00;;;;;19.47;49.40;101068.91;5082298;28;45402;-64
2023/07/16 07:50:14;;;;;;;;;6.75;6.00;;;;;19.48;49.26;101066.22;5081395;27;45421;-64
2023/07/16 07:52:39;;;;;;;;;7.50;6.50;;;;;19.53;48.89;101068.63;5080826;28;47605;-63
2023/07/16 07:55:05;;;;;;;;;7.50;6.50;;;;;19.57;48.92;101062.25;5080949;28;45856;-64
2023/07/16 07:57:30;;;;;;;;;8.50;6.00;;;;;19.60;48.85;101070.09;5082383;28;45374;-64
2023/07/16 07:59:59;;;;;;;;;10.25;6.25;;;;;19.65;48.50;101070.72;5080958;28;45251;-65
2023/07/16 08:02:25;;;;;;;;;5.25;4.00;;;;;19.69;48.36;101075.94;5082004;27;45367;-64
2023/07/16 08:04:54;;;;;;;;;5.00;5.00;;;;;19.72;48.31;101052.66;5082025;28;45172;-65
2023/07/16 08:07:20;;;;;;;;;6.00;5.00;;;;;19.78;48.51;101070.16;5082124;28;45268;-64
2023/07/16 08:09:46;;;;;;;;;6.00;4.00;;;;;19.85;48.12;101068.09;5068474;28;46562;-62
2023/07/16 08:12:12;;;;;;;;;5.50;5.25;;;;;19.89;47.54;101061.69;5066300;28;45339;-64
2023/07/16 08:14:37;;;;;;;;;7.50;6.00;;;;;19.92;48.03;101072.19;5082000;28;45267;-64
2023/07/16 08:17:02;;;;;;;;;9.75;7.00;;;;;20.00;47.38;101070.03;5081941;28;45282;-64
2023/07/16 08:19:28;;;;;;;;;8.50;5.25;;;;;20.02;47.47;101070.81;5081736;28;45576;-64
2023/07/16 08:21:53;;;;;;;;;2.25;1.50;;;;;20.09;47.47;101082.06;5081662;28;45478;-65
2023/07/16 08:24:18;;;;;;;;;7.75;6.75;;;;;20.10;47.75;101065.97;5080573;28;45247;-62
2023/07/16 08:26:45;;;;;;;;;6.50;6.00;;;;;20.20;47.36;101078.84;5063670;28;45315;-63
2023/07/16 08:29:10;;;;;;;;;5.25;2.25;;;;;20.22;46.98;101074.31;5081938;28;45515;-62
2023/07/16 08:31:35;;;;;;;;;5.25;5.25;;;;;20.28;46.65;101066.84;5081541;28;46183;-62
2023/07/16 08:34:01;;;;;;;;;6.00;5.50;;;;;20.35;46.68;101091.44;5081599;28;45247;-62
2023/07/16 08:36:26;;;;;;;;;9.00;6.50;;;;;20.36;46.59;101082.47;5081695;28;45223;-62
2023/07/16 08:38:51;;;;;;;;;8.00;6.25;;;;;20.40;46.73;101064.50;5081705;28;45223;-63
2023/07/16 08:41:17;;;;;;;;;7.25;5.50;;;;;20.47;46.24;101079.28;5081498;27;45351;-63
2023/07/16 08:43:46;;;;;;;;;6.75;6.50;;;;;20.49;46.20;101071.19;5081564;28;45368;-62
2023/07/16 08:46:11;;;;;;;;;4.25;4.00;;;;;20.49;46.61;101085.41;5080294;28;45331;-62
2023/07/16 08:48:37;;;;;;;;;8.25;5.50;;;;;20.57;46.05;101087.69;5081234;28;45437;-62
2023/07/16 08:51:03;;;;;;;;;8.75;7.00;;;;;20.62;46.26;101083.84;5081352;28;45306;-62
2023/07/16 08:53:29;;;;;;;;;8.00;4.00;;;;;20.62;46.29;101083.84;5081569;28;45232;-63
2023/07/16 08:55:55;;;;;;;;;4.25;4.25;;;;;20.69;45.96;101078.19;5081206;28;45227;-63
2023/07/16 08:58:23;;;;;;;;;8.00;7.00;;;;;20.72;46.17;101094.09;5081184;28;45552;-63
2023/07/16 09:00:49;;;;;;;;;5.00;3.75;;;;;20.74;45.41;101071.72;5079819;28;47193;-63
2023/07/16 09:03:17;;;;;;;;;7.25;7.25;;;;;20.82;45.40;101081.09;5080957;28;45358;-63
2023/07/16 09:05:44;;;;;;;;;5.25;4.50;;;;;20.87;45.77;101077.25;5081115;28;45469;-63
2023/07/16 09:08:09;;;;;;;;;8.25;4.50;;;;;20.89;45.46;101083.41;5079719;28;45510;-63
2023/07/16 09:10:35;;;;;;;;;9.00;4.75;;;;;20.98;45.78;101091.88;5061451;28;45312;-63
2023/07/16 09:13:01;;;;;;;;;7.25;5.00;;;;;21.01;44.99;101089.91;5072303;28;45233;-63
2023/07/16 09:15:28;;;;;;;;;6.75;5.00;;;;;21.01;45.11;101081.88;5079680;28;45255;-63
2023/07/16 09:17:54;;;;;;;;;5.75;4.75;;;;;21.13;44.83;101091.06;5080244;28;45477;-63
2023/07/16 09:20:20;;;;;;;;;6.00;4.75;;;;;21.16;44.60;101079.34;5079469;28;46645;-63
2023/07/16 09:22:47;;;;;;;;;7.50;4.50;;;;;21.13;45.05;101091.06;5079421;28;45502;-63
2023/07/16 09:25:13;;;;;;;;;5.50;5.00;;;;;21.27;44.66;101093.84;5062091;28;45357;-63
2023/07/16 09:27:38;;;;;;;;;7.50;5.00;;;;;21.32;44.64;101080.25;5060551;28;45336;-63
2023/07/16 09:30:05;;;;;;;;;3.50;3.00;;;;;21.39;44.72;101084.31;5060326;28;45988;-63
2023/07/16 09:32:34;;;;;;;;;7.50;5.00;;;;;21.45;44.89;101091.13;5059120;28;45415;-63
2023/07/16 09:35:00;;;;;;;;;8.75;6.25;;;;;21.51;44.52;101097.94;5060322;28;45300;-63
2023/07/16 09:37:27;;;;;;;;;6.00;3.50;;;;;21.51;44.04;101101.50;5060311;28;45425;-63
2023/07/16 09:39:53;;;;;;;;;7.50;5.00;;;;;21.49;44.13;101095.38;5059985;28;45911;-63
2023/07/16 09:42:20;;;;;;;;;5.00;5.00;;;;;21.53;44.03;101099.59;5060345;28;45200;-63
2023/07/16 09:44:46;;;;;;;;;5.75;5.00;;;;;21.55;44.24;101091.50;5060203;28;45283;-63
2023/07/16 09:47:11;;;;;;;;;7.00;4.50;;;;;21.58;43.68;101100.25;5058729;28;45452;-63
2023/07/16 09:49:36;;;;;;;;;9.50;5.50;;;;;21.61;44.02;101099.22;5060004;28;46309;-63
2023/07/16 09:52:02;;;;;;;;;5.75;5.75;;;;;21.66;43.83;101106.97;5060435;28;45183;-63
2023/07/16 09:54:31;;;;;;;;;5.50;5.00;;;;;21.67;43.61;101104.25;5058897;28;45406;-63
2023/07/16 09:56:59;;;;;;;;;4.00;3.00;;;;;21.72;43.45;101091.47;5060184;28;45384;-63
2023/07/16 09:59:28;;;;;;;;;6.00;5.00;;;;;21.75;43.73;101098.47;5058656;28;47496;-64
2023/07/16 10:01:56;;;;;;;;;8.00;4.50;;;;;21.78;43.58;101122.34;5059882;28;45479;-63
2023/07/16 10:04:22;;;;;;;;;7.00;6.00;;;;;21.78;43.42;101097.41;5060048;28;45343;-63
2023/07/16 10:06:52;;;;;;;;;5.00;4.00;;;;;21.83;43.20;101098.88;5059908;28;46597;-63
2023/07/16 10:09:35;;;;;;;;;4.75;4.50;;;;;21.88;43.41;101112.00;5065970;28;45462;-63
2023/07/16 10:12:20;;;;;;;;;7.75;5.25;;;;;21.87;42.71;101112.94;5062662;28;45276;-63
2023/07/16 10:14:50;;;;;;;;;5.00;3.50;;;;;21.89;42.31;101106.56;5066226;28;45289;-62
2023/07/16 10:17:20;;;;;;;;;5.50;5.50;;;;;21.92;42.72;101095.69;5079388;28;45517;-63
2023/07/16 10:20:07;;;;;;;;;7.00;5.50;;;;;21.95;42.98;101107.16;5079903;28;46632;-63
2023/07/16 10:22:36;;;;;;;;;7.25;4.75;;;;;21.95;42.83;101097.34;5079561;28;45462;-64
2023/07/16 10:25:08;;;;;;;;;8.25;4.50;;;;;21.98;42.53;101089.13;5079775;28;45425;-63
2023/07/16 10:27:34;;;;;;;;;8.25;6.00;;;;;22.00;42.43;101086.34;5079937;28;45358;-63
2023/07/16 10:30:04;;;;;;;;;7.50;6.00;;;;;22.07;42.69;101093.97;5080219;28;46317;-63
2023/07/16 10:32:31;;;;;;;;;6.25;6.00;;;;;22.15;42.63;101081.94;5082123;28;45256;-63
2023/07/16 10:34:57;;;;;;;;;6.00;4.00;;;;;22.22;42.89;101084.16;5082186;28;45288;-63
2023/07/16 10:37:23;;;;;;;;;5.75;4.00;;;;;22.43;43.03;101088.41;5083873;28;45289;-63
2023/07/16 10:39:54;;;;;;;;;4.00;4.00;;;;;22.59;42.83;101093.72;5083064;28;45398;-63
2023/07/16 10:42:20;;;;;;;;;3.00;2.00;;;;;22.86;42.73;101078.66;5083541;28;45251;-63
2023/07/16 10:44:53;;;;;;;;;3.75;3.75;;;;;23.16;42.61;101088.50;5083316;28;45490;-65
2023/07/16 10:47:21;;;;;;;;;3.00;2.00;;;;;23.45;42.42;101068.88;5082171;27;45456;-63
2023/07/16 10:49:46;;;;;;;;;4.00;3.75;;;;;23.78;42.16;101073.03;5083275;28;45300;-63
2023/07/16 10:52:11;;;;;;;;;4.50;4.25;;;;;24.10;41.89;101070.97;5083333;28;45263;-64
2023/07/16 10:54:37;;;;;;;;;9.50;4.00;;;;;24.42;41.82;101077.81;5083467;28;45206;-63
2023/07/16 10:57:04;;;;;;;;;2.25;1.50;;;;;24.65;41.94;101077.16;5082788;28;52769;-63
2023/07/16 10:59:29;;;;;;;;;7.00;5.00;;;;;24.91;40.74;101076.31;5081852;28;47165;-63
2023/07/16 11:01:55;;;;;;;;;6.00;6.00;;;;;25.19;40.89;101069.84;5083404;28;45310;-63
2023/07/16 11:04:20;;;;;;;;;6.50;4.75;;;;;25.38;40.32;101072.13;5082043;27;45739;-63
2023/07/16 11:06:46;;;;;;;;;1.75;0.00;;;;;25.70;40.73;101086.91;5083141;28;45420;-63
2023/07/16 11:09:11;;;;;;;;;2.00;2.00;;;;;25.92;40.13;101061.97;5081493;28;47769;-64
2023/07/16 11:11:37;;;;;;;;;5.00;5.00;;;;;26.23;40.36;101067.78;5082601;28;45406;-63
2023/07/16 11:14:07;;;;;;;;;5.75;3.50;;;;;26.50;39.33;101064.81;5082938;28;45335;-63
2023/07/16 11:16:36;;;;;;;;;6.00;4.75;;;;;26.71;39.24;101066.84;5081456;27;45495;-63
2023/07/16 11:19:06;;;;;;;;;5.50;5.50;;;;;26.90;38.13;101058.22;5082516;28;46205;-63
2023/07/16 11:21:33;;;;;;;;;7.00;6.00;;;;;27.07;37.67;101048.81;5081163;28;45197;-63